Time;durP1;ratioP1;P1;durP2;ratioP2;P2;SDS_P1;SDS_P2;PMS_P1;PMS_P2;Temp;Humidity;BMP_temperature;BMP_pressure;BME280_temperature;BME280_humidity;BME280_pressure;Samples;Min_cycle;Max_cycle;Signal;HPM_P1;HPM_P2
2023/04/12 11:53:10;;;;;;;8.20;3.27;;;12.00;52.00;;;;;;5112296;27;20886;-92
2023/04/12 11:55:37;;;;;;;6.07;3.28;;;11.90;52.40;;;;;;5095719;28;20127;-93
2023/04/12 11:58:06;;;;;;;7.60;3.35;;;11.80;52.40;;;;;;5092151;28;20035;-93
2023/04/12 12:00:33;;;;;;;7.53;3.40;;;11.80;52.20;;;;;;5099512;28;20043;-93
2023/04/12 12:03:02;;;;;;;8.90;3.42;;;11.90;52.80;;;;;;5115520;28;20066;-93
2023/04/12 12:05:39;;;;;;;7.23;3.43;;;12.00;52.90;;;;;;5107503;28;20045;-92
2023/04/12 12:08:08;;;;;;;7.38;3.35;;;12.10;52.00;;;;;;5095307;28;20043;-94
2023/04/12 12:10:37;;;;;;;6.72;3.45;;;12.20;52.90;;;;;;5078412;28;20044;-94
2023/04/12 12:13:21;;;;;;;8.95;3.50;;;12.20;51.60;;;;;;5102081;28;20036;-93
2023/04/12 12:15:51;;;;;;;7.80;3.70;;;12.40;52.60;;;;;;5081892;28;20509;-93
2023/04/12 12:18:25;;;;;;;8.97;3.93;;;12.50;51.10;;;;;;5094300;28;20055;-93
2023/04/12 12:20:54;;;;;;;7.82;3.47;;;12.60;51.00;;;;;;5078449;28;20577;-93
2023/04/12 12:23:31;;;;;;;7.35;3.20;;;12.50;50.80;;;;;;5112830;28;20043;-93
2023/04/12 12:26:05;;;;;;;7.65;3.05;;;12.50;50.90;;;;;;5115152;28;20050;-93
2023/04/12 12:28:48;;;;;;;6.22;3.50;;;12.50;50.70;;;;;;5076236;28;20055;-94
2023/04/12 12:31:23;;;;;;;6.63;3.20;;;12.40;50.50;;;;;;5074565;28;20049;-93
2023/04/12 12:33:56;;;;;;;6.97;3.25;;;12.40;51.50;;;;;;5074130;28;20137;-92
2023/04/12 12:36:34;;;;;;;7.57;3.30;;;12.40;48.80;;;;;;5073703;28;20047;-93
2023/04/12 12:39:06;;;;;;;7.07;3.15;;;12.40;49.00;;;;;;5089122;28;20044;-93
2023/04/12 12:41:54;;;;;;;7.07;3.00;;;12.50;50.50;;;;;;5094729;28;20051;-91
2023/04/12 12:44:24;;;;;;;6.03;2.63;;;12.70;48.80;;;;;;5097145;28;20118;-96
2023/04/12 12:46:52;;;;;;;7.28;2.42;;;12.70;49.70;;;;;;5100225;28;20094;-95
2023/04/12 12:54:00;;;;;;;7.55;2.80;;;13.10;49.50;;;;;;5034310;28;20084;-93
2023/04/12 12:56:36;;;;;;;7.22;2.88;;;13.10;49.00;;;;;;5026296;28;20048;-93
2023/04/12 12:59:04;;;;;;;5.80;2.70;;;13.10;47.40;;;;;;5073817;28;20052;-94
2023/04/12 13:01:43;;;;;;;6.50;2.83;;;13.00;47.10;;;;;;5075473;28;20454;-96
2023/04/12 13:04:10;;;;;;;6.78;3.10;;;13.00;48.60;;;;;;5059810;28;20547;-94
2023/04/12 13:06:40;;;;;;;10.57;3.08;;;13.10;48.30;;;;;;5061489;28;20095;-94
2023/04/12 13:09:08;;;;;;;6.82;3.35;;;13.10;49.10;;;;;;5059786;28;20505;-94
2023/04/12 13:11:35;;;;;;;7.10;3.10;;;13.20;49.00;;;;;;5059966;28;20051;-95
2023/04/12 13:21:29;;;;;;;7.20;3.22;;;13.20;48.30;;;;;;5027577;28;20040;-94
2023/04/12 13:23:56;;;;;;;5.75;2.92;;;13.10;48.40;;;;;;5059798;28;20079;-92
2023/04/12 13:26:24;;;;;;;6.53;3.10;;;13.10;47.20;;;;;;5071228;28;20036;-92
2023/04/12 13:28:51;;;;;;;8.02;3.15;;;13.20;48.60;;;;;;5078134;28;20041;-93
2023/04/12 13:31:19;;;;;;;8.20;2.70;;;13.20;48.40;;;;;;5072807;28;20044;-92
2023/04/12 13:33:46;;;;;;;5.95;2.97;;;13.30;50.50;;;;;;5069243;28;20098;-92
2023/04/12 13:36:13;;;;;;;8.20;3.40;;;13.30;48.90;;;;;;5071848;28;20051;-92
2023/04/12 13:38:40;;;;;;;8.90;3.10;;;13.40;47.90;;;;;;5065551;28;20056;-92
2023/04/12 13:41:10;;;;;;;6.72;3.10;;;13.50;49.10;;;;;;5095788;28;20040;-95
2023/04/12 13:43:37;;;;;;;5.57;2.47;;;13.60;50.70;;;;;;5064030;28;20059;-94
2023/04/12 13:46:05;;;;;;;5.85;2.97;;;13.80;48.60;;;;;;5079502;28;20041;-95
2023/04/12 13:48:36;;;;;;;7.88;3.20;;;13.80;47.90;;;;;;5079424;28;20409;-90
2023/04/12 13:51:03;;;;;;;6.43;3.00;;;13.90;48.40;;;;;;5088479;28;20044;-91
2023/04/12 13:53:30;;;;;;;6.88;2.67;;;13.90;48.90;;;;;;5059409;28;20049;-91
2023/04/12 13:56:01;;;;;;;7.88;2.92;;;14.00;48.60;;;;;;5059887;28;20057;-91
2023/04/12 13:58:30;;;;;;;6.47;2.95;;;14.00;46.90;;;;;;5070711;28;20041;-92
2023/04/12 14:00:59;;;;;;;6.40;3.17;;;13.80;48.50;;;;;;5065150;28;20098;-89
2023/04/12 14:03:26;;;;;;;7.80;2.83;;;13.80;48.40;;;;;;5062664;28;20528;-91
2023/04/12 14:05:54;;;;;;;6.15;3.17;;;13.80;47.00;;;;;;5055277;28;20047;-91
2023/04/12 14:08:21;;;;;;;6.45;3.03;;;13.80;47.00;;;;;;5064720;28;20102;-92
2023/04/12 14:10:48;;;;;;;8.57;3.03;;;13.50;46.70;;;;;;5058473;28;20045;-92
2023/04/12 14:13:16;;;;;;;6.50;2.97;;;13.50;47.10;;;;;;5063391;28;20045;-92
2023/04/12 14:15:43;;;;;;;8.30;2.90;;;13.50;46.90;;;;;;5038460;28;20411;-92
2023/04/12 14:18:26;;;;;;;7.15;3.20;;;13.60;47.60;;;;;;5051679;28;20099;-92
2023/04/12 14:20:53;;;;;;;8.70;3.78;;;13.80;48.90;;;;;;5038983;28;20059;-92
2023/04/12 14:23:23;;;;;;;8.88;3.45;;;13.80;47.70;;;;;;5055770;28;20586;-91
2023/04/12 14:25:51;;;;;;;8.75;3.97;;;13.90;46.50;;;;;;5055354;28;20047;-92
2023/04/12 14:28:20;;;;;;;9.23;3.83;;;13.80;47.40;;;;;;5055096;28;20071;-91
2023/04/12 14:30:50;;;;;;;7.82;2.83;;;13.90;47.20;;;;;;5061487;28;20064;-92
2023/04/12 14:33:17;;;;;;;6.63;3.63;;;13.90;48.50;;;;;;5074958;28;20063;-92
2023/04/12 14:35:45;;;;;;;7.00;3.50;;;13.90;47.30;;;;;;5075081;28;20049;-91
2023/04/12 14:38:12;;;;;;;6.47;3.67;;;13.90;47.10;;;;;;5074849;28;20052;-91
2023/04/12 14:40:39;;;;;;;9.40;4.23;;;13.90;48.00;;;;;;5059047;28;20041;-91
2023/04/12 14:43:06;;;;;;;7.57;3.50;;;13.90;46.90;;;;;;5038448;28;20053;-92
2023/04/12 14:45:36;;;;;;;9.00;3.95;;;14.00;46.00;;;;;;5054896;28;20532;-92
2023/04/12 14:48:03;;;;;;;8.27;3.53;;;14.00;47.10;;;;;;5054661;28;20045;-91
2023/04/12 14:50:30;;;;;;;8.55;3.25;;;14.00;46.90;;;;;;5038120;28;20057;-93
2023/04/12 14:52:57;;;;;;;8.87;3.73;;;13.90;46.00;;;;;;5044638;28;20551;-92
2023/04/12 14:55:25;;;;;;;7.90;3.20;;;13.80;46.40;;;;;;5046776;28;20049;-92
2023/04/12 14:57:52;;;;;;;7.15;2.90;;;13.80;46.10;;;;;;5041520;28;20569;-92
2023/04/12 15:00:20;;;;;;;7.18;3.03;;;13.80;48.20;;;;;;5074485;28;20045;-91
2023/04/12 15:02:48;;;;;;;9.10;3.72;;;13.80;46.20;;;;;;5075191;28;20562;-93
2023/04/12 15:05:16;;;;;;;9.17;3.17;;;13.80;46.50;;;;;;5074927;28;20565;-90
2023/04/12 15:07:44;;;;;;;7.35;3.22;;;13.70;47.20;;;;;;5075415;28;20070;-93
2023/04/12 15:10:18;;;;;;;8.02;3.47;;;13.80;47.00;;;;;;5074445;28;20044;-93
2023/04/12 15:12:46;;;;;;;7.70;3.40;;;13.70;46.60;;;;;;5074357;28;20098;-91
2023/04/12 15:15:14;;;;;;;9.35;3.65;;;13.70;47.00;;;;;;5058040;28;20079;-93
2023/04/12 15:17:41;;;;;;;7.27;3.47;;;13.50;46.50;;;;;;5074207;28;20135;-93
2023/04/12 15:20:12;;;;;;;9.57;3.72;;;13.50;47.40;;;;;;5057590;28;20494;-92
2023/04/12 15:22:39;;;;;;;9.95;3.72;;;13.60;47.00;;;;;;5074953;28;20040;-92
2023/04/12 15:25:07;;;;;;;7.82;3.70;;;13.60;47.00;;;;;;5073523;28;20571;-91
2023/04/12 15:27:34;;;;;;;9.18;3.95;;;13.70;46.90;;;;;;5073993;28;20045;-93
2023/04/12 15:30:04;;;;;;;8.43;2.93;;;13.60;47.10;;;;;;5074264;28;20139;-92
2023/04/12 15:32:40;;;;;;;7.88;3.70;;;13.60;45.90;;;;;;5057416;28;20052;-90
2023/04/12 15:35:16;;;;;;;9.57;3.85;;;13.60;46.80;;;;;;5057128;28;20075;-92
2023/04/12 15:37:53;;;;;;;7.63;3.95;;;13.60;46.40;;;;;;5058078;28;20048;-94
2023/04/12 15:40:21;;;;;;;8.10;3.88;;;13.60;47.70;;;;;;5058107;28;20511;-95
2023/04/12 15:42:49;;;;;;;8.17;3.67;;;13.50;46.60;;;;;;5074184;28;20269;-95
2023/04/12 15:45:17;;;;;;;6.95;3.65;;;13.30;48.20;;;;;;5057603;28;20053;-94
2023/04/12 15:47:44;;;;;;;8.02;4.28;;;13.30;47.40;;;;;;5073814;28;20044;-95
2023/04/12 15:50:14;;;;;;;7.63;3.50;;;13.30;47.50;;;;;;5057400;28;20049;-95
2023/04/12 15:52:43;;;;;;;8.90;3.90;;;13.30;47.90;;;;;;5075511;28;20044;-96
2023/04/12 15:55:10;;;;;;;8.77;3.87;;;13.30;47.50;;;;;;5074106;28;20048;-95
2023/04/12 15:57:38;;;;;;;8.57;3.95;;;13.30;48.20;;;;;;5074462;28;20055;-94
2023/04/12 16:00:23;;;;;;;8.55;4.22;;;13.20;48.60;;;;;;5057451;28;20053;-94
2023/04/12 16:04:01;;;;;;;7.60;3.50;;;13.10;47.60;;;;;;5074726;28;20043;-93
2023/04/12 16:06:36;;;;;;;7.68;4.18;;;13.10;48.30;;;;;;5057992;28;20508;-94
2023/04/12 16:09:07;;;;;;;8.60;3.73;;;13.10;47.70;;;;;;5057164;28;20052;-92
2023/04/12 16:11:35;;;;;;;10.43;3.50;;;13.10;47.20;;;;;;5056538;28;20068;-92
2023/04/12 16:14:06;;;;;;;9.40;4.07;;;13.00;48.30;;;;;;5056615;28;20431;-92
2023/04/12 16:16:33;;;;;;;13.60;6.30;;;13.00;47.90;;;;;;5047601;28;20068;-92
2023/04/12 16:19:07;;;;;;;10.00;4.25;;;12.90;48.20;;;;;;5051229;28;20387;-92
2023/04/12 16:21:35;;;;;;;12.20;6.07;;;12.90;48.70;;;;;;5045955;28;20048;-93
2023/04/12 16:24:04;;;;;;;10.88;4.25;;;12.80;49.00;;;;;;5056363;28;20044;-92
2023/04/12 16:26:33;;;;;;;10.75;4.22;;;12.80;49.10;;;;;;5056851;28;20052;-93
2023/04/12 16:30:10;;;;;;;9.05;4.35;;;12.70;49.60;;;;;;5057076;28;20098;-94
2023/04/12 16:33:10;;;;;;;9.57;3.85;;;12.70;49.00;;;;;;5048452;28;20044;-92
2023/04/12 16:36:00;;;;;;;10.47;3.73;;;12.50;49.80;;;;;;5054502;28;20387;-92
2023/04/12 16:38:33;;;;;;;8.27;3.80;;;12.50;50.50;;;;;;5059057;28;20502;-92
2023/04/12 16:42:07;;;;;;;8.95;4.40;;;12.50;50.40;;;;;;5057000;28;20498;-93
2023/04/12 16:44:50;;;;;;;9.85;3.88;;;12.40;50.70;;;;;;5069458;28;20039;-92
2023/04/12 16:47:18;;;;;;;9.68;4.07;;;12.30;51.30;;;;;;5060010;28;20060;-92
2023/04/12 16:49:46;;;;;;;12.23;5.13;;;12.30;51.00;;;;;;5053262;28;20055;-93
2023/04/12 16:52:14;;;;;;;10.30;5.13;;;12.20;51.50;;;;;;5060072;28;20075;-91
2023/04/12 16:54:42;;;;;;;12.82;5.72;;;12.20;52.00;;;;;;5059714;28;20136;-91
2023/04/12 16:57:10;;;;;;;11.75;5.63;;;12.10;51.80;;;;;;5085339;28;20044;-92
2023/04/12 16:59:38;;;;;;;13.50;5.57;;;12.10;52.10;;;;;;5078314;28;20048;-92
2023/04/12 17:02:06;;;;;;;12.10;5.17;;;12.00;52.20;;;;;;5065372;28;20454;-92
2023/04/12 17:04:34;;;;;;;10.57;5.30;;;12.00;52.20;;;;;;5082446;28;20415;-92
2023/04/12 17:07:01;;;;;;;9.52;4.85;;;11.90;52.80;;;;;;5082850;28;20053;-91
2023/04/12 17:09:28;;;;;;;9.52;5.05;;;11.90;53.10;;;;;;5061682;28;20124;-92
2023/04/12 17:11:56;;;;;;;12.70;6.28;;;11.80;53.40;;;;;;5056210;28;20045;-94
2023/04/12 17:14:23;;;;;;;12.87;6.47;;;11.70;53.50;;;;;;5064926;28;20487;-92
2023/04/12 17:16:50;;;;;;;10.80;4.95;;;11.60;54.20;;;;;;5071869;28;20044;-94
2023/04/12 17:19:19;;;;;;;10.82;4.43;;;11.50;54.40;;;;;;5056733;28;20529;-94
2023/04/12 17:21:46;;;;;;;8.70;3.75;;;11.50;54.40;;;;;;5053294;28;20037;-92
2023/04/12 17:24:14;;;;;;;10.48;3.97;;;11.50;54.50;;;;;;5054629;28;20136;-91
2023/04/12 17:26:41;;;;;;;8.50;4.00;;;11.50;54.70;;;;;;5093803;28;20046;-93
2023/04/12 17:29:08;;;;;;;9.82;3.70;;;11.40;54.50;;;;;;5093516;28;20378;-93
2023/04/12 17:31:36;;;;;;;8.73;4.50;;;11.40;54.40;;;;;;5076308;28;20043;-93
2023/04/12 17:34:03;;;;;;;11.25;4.75;;;11.30;54.60;;;;;;5091104;28;20478;-92
2023/04/12 17:36:31;;;;;;;11.75;5.03;;;11.30;54.60;;;;;;5081278;28;20032;-94
2023/04/12 17:38:58;;;;;;;10.30;4.90;;;11.20;54.80;;;;;;5075762;28;20044;-93
2023/04/12 17:41:29;;;;;;;11.27;4.80;;;11.10;54.80;;;;;;5076016;28;20037;-93
2023/04/12 17:43:57;;;;;;;10.55;4.88;;;11.10;55.20;;;;;;5093083;28;20401;-93
2023/04/12 17:46:25;;;;;;;11.48;5.28;;;11.00;55.50;;;;;;5093056;28;20143;-93
2023/04/12 17:48:52;;;;;;;12.30;5.82;;;11.00;55.70;;;;;;5093074;28;20049;-93
2023/04/12 17:51:19;;;;;;;12.33;5.67;;;10.90;56.40;;;;;;5074929;28;20049;-93
2023/04/12 17:53:49;;;;;;;14.43;7.40;;;10.80;56.90;;;;;;5072692;28;20044;-94
2023/04/12 17:56:16;;;;;;;14.50;7.22;;;10.70;56.90;;;;;;5076065;28;20075;-93
2023/04/12 17:58:43;;;;;;;14.25;6.18;;;10.70;57.30;;;;;;5059188;28;20090;-94
2023/04/12 18:01:11;;;;;;;14.30;6.30;;;10.60;57.30;;;;;;5060082;28;20048;-93
2023/04/12 18:03:38;;;;;;;13.83;7.40;;;10.60;58.10;;;;;;5058888;28;20041;-94
2023/04/12 18:06:05;;;;;;;15.20;8.13;;;10.50;57.90;;;;;;5059092;28;20074;-94
2023/04/12 18:08:41;;;;;;;18.27;10.10;;;10.50;58.10;;;;;;5068325;28;20071;-96
2023/04/12 18:11:42;;;;;;;17.55;9.07;;;10.50;58.30;;;;;;5087350;28;20071;-96
2023/04/12 18:14:12;;;;;;;13.65;5.65;;;10.50;58.10;;;;;;5072075;28;20049;-93
2023/04/12 18:16:39;;;;;;;16.90;9.97;;;10.40;57.60;;;;;;5064697;28;20486;-95
2023/04/12 18:19:07;;;;;;;10.50;5.28;;;10.40;57.40;;;;;;5059732;28;20041;-96
2023/04/12 18:21:37;;;;;;;11.68;5.22;;;10.40;57.50;;;;;;5062388;28;20512;-95
2023/04/12 18:24:05;;;;;;;11.55;5.65;;;10.50;57.50;;;;;;5060142;28;20040;-94
2023/04/12 18:26:35;;;;;;;13.27;5.88;;;10.50;57.40;;;;;;5059132;28;20055;-95
2023/04/12 18:29:04;;;;;;;12.47;6.57;;;10.50;58.70;;;;;;5060863;28;20116;-96
2023/04/12 18:31:36;;;;;;;12.68;5.95;;;10.40;59.50;;;;;;5064244;28;20057;-95
2023/04/12 18:34:08;;;;;;;17.42;8.07;;;10.30;59.70;;;;;;5079922;28;20045;-94
2023/04/12 18:36:38;;;;;;;19.55;8.50;;;10.20;59.70;;;;;;5059812;28;20044;-95
2023/04/12 18:39:06;;;;;;;21.40;10.07;;;10.20;59.90;;;;;;5059727;28;20040;-95
2023/04/12 18:41:37;;;;;;;21.00;8.77;;;10.10;60.50;;;;;;5061930;28;20040;-95
2023/04/12 18:44:14;;;;;;;24.05;10.55;;;10.00;60.30;;;;;;5063916;28;20045;-94
2023/04/12 18:59:02;;;;;;;20.63;10.53;;;9.50;62.00;;;;;;5112484;23;20049;31
2023/04/12 19:05:31;;;;;;;22.63;11.18;;;9.20;62.80;;;;;;4867819;29;20101;-95
2023/04/12 19:08:05;;;;;;;30.60;15.15;;;9.20;62.60;;;;;;4835519;29;20049;-96
2023/04/12 19:26:45;;;;;;;24.95;12.07;;;8.70;64.30;;;;;;4845726;29;20050;-96
2023/04/12 19:43:24;;;;;;;25.58;12.68;;;8.50;64.90;;;;;;5789794;23;20065;-96
2023/04/12 19:46:37;;;;;;;23.87;12.50;;;8.30;65.70;;;;;;5152801;23;20119;-96
2023/04/12 19:49:08;;;;;;;20.38;10.80;;;8.20;66.00;;;;;;4869299;29;20052;-95
2023/04/12 19:56:36;;;;;;;25.85;13.73;;;8.10;66.20;;;;;;4903752;29;20175;-95
2023/04/12 19:59:05;;;;;;;27.83;13.20;;;8.00;66.80;;;;;;4900531;29;20039;-96
2023/04/12 20:05:57;;;;;;;25.00;13.48;;;7.60;67.50;;;;;;4915273;29;20048;-96
2023/04/12 20:08:30;;;;;;;25.63;12.00;;;7.50;68.10;;;;;;4870111;29;20057;-95
2023/04/12 20:10:59;;;;;;;24.48;12.32;;;7.50;68.20;;;;;;4867614;29;20052;-96
2023/04/12 20:13:30;;;;;;;20.75;11.38;;;7.50;68.10;;;;;;4872039;29;20044;-95
2023/04/12 20:15:59;;;;;;;23.80;11.93;;;7.40;68.20;;;;;;4871861;29;20459;-95
2023/04/12 20:23:05;;;;;;;23.33;12.00;;;7.40;68.70;;;;;;4909965;29;20019;-94
2023/04/12 20:25:36;;;;;;;22.67;11.82;;;7.30;68.80;;;;;;4880439;29;20055;-96
2023/04/12 20:28:03;;;;;;;21.17;10.88;;;7.30;68.80;;;;;;4859975;29;20075;-96
2023/04/12 20:30:31;;;;;;;22.93;11.93;;;7.20;69.10;;;;;;4874239;29;20056;-94
2023/04/12 20:32:59;;;;;;;21.15;11.27;;;7.10;69.30;;;;;;4872484;29;20415;-96
2023/04/12 20:35:29;;;;;;;25.15;10.60;;;7.00;69.50;;;;;;4873951;29;20055;-96
2023/04/12 20:38:01;;;;;;;19.77;10.45;;;7.10;69.30;;;;;;4872455;29;20499;-95
2023/04/12 20:43:51;;;;;;;22.33;10.50;;;7.10;69.50;;;;;;5559439;23;20104;-95
2023/04/12 20:46:25;;;;;;;23.75;11.48;;;7.10;69.50;;;;;;4882372;29;20052;-95
2023/04/12 20:49:05;;;;;;;22.00;10.85;;;7.00;69.60;;;;;;4882844;29;20037;-95
2023/04/12 20:58:18;;;;;;;24.70;10.90;;;7.00;69.80;;;;;;5406216;24;20053;-96
2023/04/12 21:01:17;;;;;;;23.35;11.38;;;7.00;69.70;;;;;;4848906;29;20096;-96
2023/04/12 21:04:21;;;;;;;19.65;10.48;;;6.90;69.90;;;;;;4863289;29;20045;-96
2023/04/12 21:06:54;;;;;;;20.85;9.52;;;6.80;70.20;;;;;;4851926;29;20056;-96
2023/04/12 21:09:22;;;;;;;18.80;9.70;;;6.70;70.10;;;;;;4842260;29;20136;-96
2023/04/12 21:11:51;;;;;;;18.53;8.67;;;6.70;70.20;;;;;;4845171;29;20049;-96
2023/04/12 21:14:21;;;;;;;16.65;8.02;;;6.70;69.90;;;;;;4861935;29;20049;-96
2023/04/12 21:16:53;;;;;;;16.73;8.48;;;6.70;69.40;;;;;;4843371;29;20050;-95
2023/04/12 21:19:21;;;;;;;21.20;7.60;;;6.60;69.10;;;;;;4850889;29;20045;-96
2023/04/12 21:21:49;;;;;;;17.20;8.23;;;6.60;69.00;;;;;;4834779;29;20045;-95
2023/04/12 21:24:17;;;;;;;17.20;8.60;;;6.60;69.20;;;;;;4834552;29;20054;-96
2023/04/12 21:26:54;;;;;;;19.63;8.38;;;6.70;68.40;;;;;;4849800;29;20059;-95
2023/04/12 21:29:22;;;;;;;17.77;8.98;;;6.60;68.60;;;;;;4835023;29;20508;-94
2023/04/12 21:31:49;;;;;;;19.48;9.10;;;6.60;68.40;;;;;;4835377;29;20049;-95
2023/04/12 21:34:17;;;;;;;18.63;8.45;;;6.70;67.90;;;;;;4834779;29;20046;-95
2023/04/12 21:36:44;;;;;;;23.00;9.83;;;6.70;67.60;;;;;;4834653;29;20064;-96
2023/04/12 21:39:11;;;;;;;19.50;9.95;;;6.70;67.50;;;;;;4835049;29;20144;-96
2023/04/12 21:41:38;;;;;;;28.42;9.90;;;6.70;67.50;;;;;;4834557;29;20042;-94
2023/04/12 21:44:06;;;;;;;19.60;9.27;;;6.70;67.50;;;;;;4839354;29;20069;-96
2023/04/12 21:46:37;;;;;;;18.92;9.23;;;6.60;67.50;;;;;;4841707;29;20058;-96
2023/04/12 21:49:05;;;;;;;22.30;9.53;;;6.70;67.70;;;;;;4840003;29;20050;-96
2023/04/12 21:51:33;;;;;;;20.23;9.40;;;6.70;67.90;;;;;;4837952;29;20082;-95
2023/04/12 21:54:01;;;;;;;18.38;8.80;;;6.60;67.80;;;;;;4837459;29;20117;-96
2023/04/12 21:56:28;;;;;;;16.65;8.55;;;6.60;67.80;;;;;;4837179;29;20045;-96
2023/04/12 21:58:58;;;;;;;17.73;7.88;;;6.70;67.50;;;;;;4849990;29;20052;-95
2023/04/12 22:01:26;;;;;;;17.00;8.37;;;6.60;67.00;;;;;;4871700;29;20041;-96
2023/04/12 22:03:53;;;;;;;20.80;9.50;;;6.60;67.00;;;;;;4854064;29;20064;-95
2023/04/12 22:06:21;;;;;;;18.08;8.27;;;6.60;67.20;;;;;;4854168;29;20053;-95
2023/04/12 22:08:48;;;;;;;17.83;8.70;;;6.60;66.70;;;;;;4870728;29;20436;-94
2023/04/12 22:11:17;;;;;;;18.48;8.20;;;6.60;66.50;;;;;;4855192;29;20053;-96
2023/04/12 22:13:45;;;;;;;19.63;8.03;;;6.50;66.50;;;;;;4854475;29;20041;-95
2023/04/12 22:16:12;;;;;;;20.10;9.30;;;6.50;66.50;;;;;;4855021;29;20053;-96
2023/04/12 22:18:41;;;;;;;19.63;8.30;;;6.50;66.80;;;;;;4853786;29;20120;-93
2023/04/12 22:21:14;;;;;;;18.92;8.50;;;6.50;66.50;;;;;;4862362;29;20080;-96
2023/04/12 22:23:43;;;;;;;18.13;8.50;;;6.50;66.60;;;;;;4849515;29;20057;-96
2023/04/12 22:26:12;;;;;;;17.97;8.33;;;6.50;66.40;;;;;;4863066;29;20053;-96
2023/04/12 22:28:47;;;;;;;19.58;8.18;;;6.50;66.90;;;;;;4861102;29;20044;-96
2023/04/12 22:31:26;;;;;;;17.48;8.23;;;6.50;66.70;;;;;;4863669;29;20052;-96
2023/04/12 22:34:10;;;;;;;16.17;7.25;;;6.50;66.50;;;;;;4848795;29;20060;-96
2023/04/12 22:36:40;;;;;;;15.98;6.93;;;6.50;66.10;;;;;;4859923;29;20049;-96
2023/04/12 22:43:21;;;;;;;14.75;6.05;;;6.50;65.60;;;;;;4897879;29;20068;-96
2023/04/12 22:45:55;;;;;;;14.40;5.90;;;6.50;65.50;;;;;;4880898;29;20048;-96
2023/04/12 22:49:38;;;;;;;15.75;6.10;;;6.50;65.30;;;;;;4885851;29;20040;-96
2023/04/12 22:57:03;;;;;;;13.43;5.83;;;6.60;64.50;;;;;;4901151;29;20032;-96
2023/04/12 23:04:30;;;;;;;13.25;5.40;;;6.60;64.60;;;;;;4902025;29;20060;-96
2023/04/12 23:07:28;;;;;;;12.13;5.43;;;6.60;64.40;;;;;;4882745;29;20052;-96
2023/04/12 23:10:04;;;;;;;13.23;6.25;;;6.50;64.40;;;;;;4864227;29;20052;-95
2023/04/12 23:12:37;;;;;;;16.60;6.27;;;6.60;64.50;;;;;;4884840;29;20053;-96
2023/04/12 23:15:15;;;;;;;15.70;6.38;;;6.50;64.60;;;;;;4868186;29;20053;-96
2023/04/12 23:17:48;;;;;;;14.13;6.07;;;6.50;64.40;;;;;;4865508;29;20053;-96
2023/04/12 23:20:23;;;;;;;16.08;6.72;;;6.50;64.40;;;;;;4866930;29;20048;-96
2023/04/12 23:22:54;;;;;;;11.95;5.70;;;6.60;64.30;;;;;;4865880;29;20048;-95
2023/04/12 23:37:00;;;;;;;14.52;6.35;;;6.80;63.80;;;;;;4919396;29;20093;-96
2023/04/12 23:44:23;;;;;;;13.83;6.00;;;6.60;64.30;;;;;;4902763;29;20037;-96
